Terminal Aerodrome Forecast
Issued by NWS Mt. Holly, NJ

Home | Current Version | Previous Version | Text Only | Print | Product List | Glossary On
Versions: 1 2 3 4 5 6 7 8 9 10 11 12 13 14 15 16 17 18 19 20 21 22 23 24 25
839
FTUS41 KPHI 220001 AAA
TAFTTN
TAF AMD
KTTN 220001Z 2200/2224 25008KT P6SM SCT045 OVC080
      TEMPO 2200/2202 4SM -SHRA BR OVC045
     FM220200 36008KT P6SM -SHRA OVC045
     FM220600 03008KT P6SM -SHRA OVC035
     FM221400 06008KT 4SM -RA BR OVC015
     FM222200 07008KT 4SM -RA BR OVC008=

USA.gov is the U.S. government's official web portal to all federal, state and local government web resources and services.